Time;durP1;ratioP1;P1;durP2;ratioP2;P2;SDS_P1;SDS_P2;PMS_P1;PMS_P2;Temp;Humidity;BMP_temperature;BMP_pressure;BME280_temperature;BME280_humidity;BME280_pressure;Samples;Min_cycle;Max_cycle;Signal;HPM_P1;HPM_P2
2023/08/01 00:00:52;;;;;;;3.33;2.35;;;16.10;99.90;;;;;;5017625;28;20179;-78
2023/08/01 00:03:17;;;;;;;3.85;2.67;;;16.10;99.90;;;;;;5035379;28;20175;-78
2023/08/01 00:05:44;;;;;;;3.33;2.50;;;16.10;99.90;;;;;;5017728;28;20233;-79
2023/08/01 00:08:14;;;;;;;5.40;2.67;;;16.10;99.90;;;;;;5017425;28;20532;-78
2023/08/01 00:10:43;;;;;;;4.82;3.20;;;16.20;99.90;;;;;;5016987;28;20274;-78
2023/08/01 00:13:09;;;;;;;3.63;2.63;;;16.10;99.90;;;;;;5016765;28;20265;-78
2023/08/01 00:15:35;;;;;;;5.55;2.80;;;16.20;99.90;;;;;;5034349;28;20724;-78
2023/08/01 00:18:00;;;;;;;2.75;2.55;;;16.20;99.90;;;;;;5016191;28;20183;-78
2023/08/01 00:20:26;;;;;;;6.00;2.72;;;16.10;99.90;;;;;;5016075;28;20183;-78
2023/08/01 00:22:52;;;;;;;4.78;2.63;;;16.20;99.90;;;;;;5034194;28;20277;-78
2023/08/01 00:25:18;;;;;;;2.60;2.40;;;16.10;99.90;;;;;;5034446;28;20201;-78
2023/08/01 00:27:44;;;;;;;3.90;2.67;;;16.20;99.90;;;;;;5034153;28;20178;-78
2023/08/01 00:30:10;;;;;;;4.55;2.35;;;16.20;99.90;;;;;;5034138;28;20172;-78
2023/08/01 00:32:37;;;;;;;4.45;2.47;;;16.20;99.90;;;;;;5016082;28;20643;-78
2023/08/01 00:35:03;;;;;;;5.78;2.80;;;16.20;99.90;;;;;;5034040;28;20194;-78
2023/08/01 00:37:29;;;;;;;2.90;2.45;;;16.20;99.90;;;;;;5034267;28;20182;-78
2023/08/01 00:39:55;;;;;;;3.38;2.53;;;16.10;99.90;;;;;;5034467;28;20261;-78
2023/08/01 00:42:21;;;;;;;2.63;2.40;;;16.10;99.90;;;;;;5034216;28;20199;-78
2023/08/01 00:44:48;;;;;;;3.97;2.45;;;16.20;99.90;;;;;;5016017;28;20266;-78
2023/08/01 00:47:15;;;;;;;2.50;2.30;;;16.20;99.90;;;;;;5033521;28;20202;-78
2023/08/01 00:49:41;;;;;;;2.30;2.10;;;16.20;99.90;;;;;;5016045;28;20217;-78
2023/08/01 00:52:08;;;;;;;2.38;2.00;;;16.20;99.90;;;;;;5033717;28;20571;-78
2023/08/01 00:54:36;;;;;;;2.58;1.90;;;16.20;99.90;;;;;;5035847;28;20194;-78
2023/08/01 00:57:05;;;;;;;3.40;2.15;;;16.20;99.90;;;;;;5019829;28;20588;-78
2023/08/01 00:59:31;;;;;;;2.15;1.95;;;16.20;99.90;;;;;;5019586;28;20648;-78
2023/08/01 01:01:59;;;;;;;2.63;2.13;;;16.30;99.90;;;;;;5037105;28;20203;-78
2023/08/01 01:04:25;;;;;;;2.15;1.95;;;16.30;99.90;;;;;;5019534;28;20179;-78
2023/08/01 01:07:03;;;;;;;3.28;2.03;;;16.30;99.90;;;;;;5019585;28;20195;-78
2023/08/01 01:09:31;;;;;;;1.80;1.70;;;16.30;99.90;;;;;;5019458;28;20175;-78
2023/08/01 01:11:58;;;;;;;4.18;2.10;;;16.30;99.90;;;;;;5019507;28;20262;-78
2023/08/01 01:14:27;;;;;;;2.83;1.90;;;16.30;99.90;;;;;;5037523;28;20182;-78
2023/08/01 01:16:53;;;;;;;1.70;1.60;;;16.30;99.90;;;;;;5019082;28;20195;-78
2023/08/01 01:19:19;;;;;;;2.15;1.77;;;16.20;99.90;;;;;;5037136;28;20179;-79
2023/08/01 01:22:02;;;;;;;1.50;1.50;;;16.00;99.90;;;;;;5037952;28;20203;-79
2023/08/01 01:24:28;;;;;;;1.50;1.40;;;15.90;99.90;;;;;;5020635;28;20175;-79
2023/08/01 01:26:56;;;;;;;1.50;1.50;;;15.80;99.90;;;;;;5038039;28;20190;-79
2023/08/01 01:29:24;;;;;;;1.58;1.40;;;15.70;99.90;;;;;;5037500;28;20669;-79
2023/08/01 01:31:50;;;;;;;1.67;1.58;;;15.70;99.90;;;;;;5036865;28;20186;-79
2023/08/01 01:34:16;;;;;;;2.13;1.60;;;15.60;99.90;;;;;;5036842;28;20682;-78
2023/08/01 01:36:42;;;;;;;1.70;1.60;;;15.60;99.90;;;;;;5036563;28;20246;-78
2023/08/01 01:39:08;;;;;;;1.60;1.50;;;15.70;99.90;;;;;;5019107;28;20175;-78
2023/08/01 01:41:33;;;;;;;2.70;1.70;;;15.60;99.90;;;;;;5036781;28;20206;-78
2023/08/01 01:43:59;;;;;;;1.80;1.70;;;15.60;99.90;;;;;;5019392;28;20251;-78
2023/08/01 01:46:25;;;;;;;4.47;2.15;;;15.50;99.90;;;;;;5036769;28;20198;-79
2023/08/01 01:48:50;;;;;;;2.05;1.95;;;15.50;99.90;;;;;;5036814;28;20273;-79
2023/08/01 01:51:16;;;;;;;2.00;1.90;;;15.50;99.90;;;;;;5018837;28;20205;-78
2023/08/01 01:53:42;;;;;;;2.58;2.38;;;15.50;99.90;;;;;;5018710;28;20617;-78
2023/08/01 01:56:08;;;;;;;2.50;2.20;;;15.50;99.90;;;;;;5018492;28;20290;-78
2023/08/01 01:58:33;;;;;;;2.70;2.50;;;15.50;99.90;;;;;;5018517;28;20229;-78
2023/08/01 02:00:59;;;;;;;2.80;2.60;;;15.50;99.90;;;;;;5018240;28;20183;-78
2023/08/01 02:03:25;;;;;;;3.15;2.60;;;15.50;99.90;;;;;;5018287;28;20179;-78
2023/08/01 02:05:51;;;;;;;3.47;3.17;;;15.50;99.90;;;;;;5017603;28;20191;-78
2023/08/01 02:08:16;;;;;;;3.10;2.80;;;15.50;99.90;;;;;;5018260;28;20647;-78
2023/08/01 02:10:42;;;;;;;4.50;3.20;;;15.40;99.90;;;;;;5036306;28;20250;-78
2023/08/01 02:13:08;;;;;;;3.00;2.80;;;15.40;99.90;;;;;;5018174;28;20270;-78
2023/08/01 02:15:34;;;;;;;5.53;3.33;;;15.40;99.90;;;;;;5017975;28;20202;-78
2023/08/01 02:18:00;;;;;;;4.30;2.78;;;15.50;99.90;;;;;;5035756;28;20180;-78
2023/08/01 02:20:26;;;;;;;5.25;2.97;;;15.50;99.90;;;;;;5017911;28;20228;-78
2023/08/01 02:22:52;;;;;;;3.10;2.80;;;15.60;99.90;;;;;;5035862;28;20268;-78
2023/08/01 02:25:18;;;;;;;4.32;2.90;;;15.50;99.90;;;;;;5036014;28;20679;-78
2023/08/01 02:27:43;;;;;;;4.00;2.80;;;15.50;99.90;;;;;;5017862;28;20179;-78
2023/08/01 02:30:10;;;;;;;4.35;2.90;;;15.50;99.90;;;;;;5036068;28;20571;-78
2023/08/01 02:32:36;;;;;;;3.97;2.80;;;15.40;99.90;;;;;;5035272;28;20183;-78
2023/08/01 02:35:01;;;;;;;2.88;2.67;;;15.40;99.90;;;;;;5017570;28;20198;-77
2023/08/01 02:37:27;;;;;;;3.42;3.13;;;15.50;99.90;;;;;;5035494;28;20611;-77
2023/08/01 02:39:53;;;;;;;3.38;2.88;;;15.40;99.90;;;;;;5017714;28;20183;-77
2023/08/01 02:42:18;;;;;;;3.47;3.13;;;15.40;99.90;;;;;;5035367;28;20221;-77
2023/08/01 02:44:44;;;;;;;3.53;3.10;;;15.40;99.90;;;;;;5035599;28;20179;-77
2023/08/01 02:47:10;;;;;;;5.68;3.17;;;15.40;99.90;;;;;;5017174;28;20194;-78
2023/08/01 02:49:36;;;;;;;3.70;3.30;;;15.40;99.90;;;;;;5017303;28;20183;-77
2023/08/01 02:52:01;;;;;;;4.43;3.80;;;15.30;99.90;;;;;;5017357;28;20194;-78
2023/08/01 02:54:27;;;;;;;7.10;4.35;;;15.30;99.90;;;;;;5017344;28;20175;-77
2023/08/01 02:56:53;;;;;;;6.60;4.68;;;15.10;99.90;;;;;;5017430;28;20290;-78
2023/08/01 02:59:18;;;;;;;6.90;4.68;;;15.00;99.90;;;;;;5017203;28;20232;-77
2023/08/01 03:01:44;;;;;;;6.70;4.60;;;15.00;99.90;;;;;;5016899;28;20205;-78
2023/08/01 03:04:14;;;;;;;7.53;4.65;;;14.90;99.90;;;;;;5017211;28;20175;-78
2023/08/01 03:06:39;;;;;;;9.88;5.75;;;14.90;99.90;;;;;;5016981;28;20199;-77
2023/08/01 03:09:08;;;;;;;8.70;5.15;;;14.80;99.90;;;;;;5016990;28;20186;-77
2023/08/01 03:11:36;;;;;;;11.20;6.22;;;14.80;99.90;;;;;;5017134;28;20176;-78
2023/08/01 03:14:04;;;;;;;10.65;5.70;;;14.80;99.90;;;;;;5016995;28;20265;-78
2023/08/01 03:16:31;;;;;;;14.25;7.00;;;14.80;99.90;;;;;;5016817;28;20210;-78
2023/08/01 03:18:57;;;;;;;12.43;6.88;;;14.70;99.90;;;;;;5034415;28;20183;-78
2023/08/01 03:21:23;;;;;;;13.82;7.95;;;14.70;99.90;;;;;;5016841;28;20207;-78
2023/08/01 03:23:48;;;;;;;10.63;7.60;;;14.70;99.90;;;;;;5034689;28;20171;-78
2023/08/01 03:26:15;;;;;;;16.15;9.38;;;14.70;99.90;;;;;;5016957;28;20672;-78
2023/08/01 03:28:41;;;;;;;12.38;7.80;;;14.70;99.90;;;;;;5016860;28;20253;-78
2023/08/01 03:31:06;;;;;;;17.85;9.32;;;14.70;99.90;;;;;;5016642;28;20214;-78
2023/08/01 03:33:33;;;;;;;25.90;10.90;;;14.70;99.90;;;;;;5034217;28;20175;-78
2023/08/01 03:35:59;;;;;;;16.33;9.75;;;14.70;99.90;;;;;;5016378;28;20210;-78
2023/08/01 03:38:25;;;;;;;19.42;12.25;;;14.70;99.90;;;;;;5016610;28;20658;-78
2023/08/01 03:40:51;;;;;;;19.38;12.73;;;14.70;99.90;;;;;;5034347;28;20250;-78
2023/08/01 03:43:17;;;;;;;21.10;13.80;;;14.70;99.90;;;;;;5016614;28;20684;-78
2023/08/01 03:45:43;;;;;;;25.98;14.68;;;14.70;99.90;;;;;;5016627;28;20617;-78
2023/08/01 03:48:08;;;;;;;27.30;15.23;;;14.70;99.90;;;;;;5016445;28;20213;-78
2023/08/01 03:50:34;;;;;;;28.10;17.85;;;14.70;99.90;;;;;;5016576;28;20198;-78
2023/08/01 03:53:00;;;;;;;28.60;18.00;;;14.80;99.90;;;;;;5016574;28;20186;-78
2023/08/01 03:55:25;;;;;;;33.38;17.95;;;14.80;99.90;;;;;;5016211;28;20203;-78
2023/08/01 03:57:51;;;;;;;40.08;21.35;;;14.80;99.90;;;;;;5034132;28;20171;-78
2023/08/01 04:00:18;;;;;;;43.63;23.05;;;14.80;99.90;;;;;;5016540;28;20183;-78
2023/08/01 04:02:44;;;;;;;37.83;23.77;;;14.80;99.90;;;;;;5016165;28;20210;-78
2023/08/01 04:05:10;;;;;;;43.80;23.95;;;14.80;99.90;;;;;;5033945;28;20179;-78
2023/08/01 04:07:38;;;;;;;43.88;25.35;;;14.80;99.90;;;;;;5033966;28;20171;-78
2023/08/01 04:10:04;;;;;;;52.92;26.85;;;14.80;99.90;;;;;;5016039;28;20670;-78
2023/08/01 04:12:34;;;;;;;49.97;26.30;;;14.80;99.90;;;;;;5016319;28;20274;-77
2023/08/01 04:15:00;;;;;;;44.67;26.55;;;14.80;99.90;;;;;;5016149;28;20183;-78
2023/08/01 04:17:26;;;;;;;52.92;28.98;;;14.90;99.90;;;;;;5033520;28;20183;-77
2023/08/01 04:19:51;;;;;;;49.67;28.33;;;14.90;99.90;;;;;;5000993;28;20187;-78
2023/08/01 04:22:19;;;;;;;61.60;32.13;;;14.90;99.90;;;;;;4996739;28;20238;-78
2023/08/01 04:24:44;;;;;;;60.70;30.27;;;14.90;99.90;;;;;;4996694;28;20259;-78
2023/08/01 04:27:10;;;;;;;60.72;31.38;;;14.90;99.90;;;;;;4996404;28;20202;-78
2023/08/01 04:29:36;;;;;;;76.90;35.55;;;14.80;99.90;;;;;;5000942;28;20172;-78
2023/08/01 04:32:02;;;;;;;57.38;34.30;;;14.90;99.90;;;;;;5020325;28;20172;-77
2023/08/01 04:34:27;;;;;;;59.83;34.83;;;14.90;99.90;;;;;;5020457;28;20187;-77
2023/08/01 04:36:53;;;;;;;65.28;36.90;;;14.90;99.90;;;;;;5020116;28;20612;-77
2023/08/01 04:39:19;;;;;;;61.22;35.28;;;14.90;99.90;;;;;;5020490;28;20175;-77
2023/08/01 04:41:44;;;;;;;67.15;35.65;;;14.90;99.90;;;;;;5020170;28;20199;-78
2023/08/01 04:44:10;;;;;;;63.85;34.92;;;14.90;99.90;;;;;;5002686;28;20554;-77
2023/08/01 04:46:36;;;;;;;49.10;31.17;;;14.90;99.90;;;;;;5002693;28;20191;-77
2023/08/01 04:49:02;;;;;;;54.95;31.52;;;14.90;99.90;;;;;;5010789;28;20189;-77
2023/08/01 04:51:27;;;;;;;48.72;30.55;;;14.80;99.90;;;;;;5040372;28;20631;-77
2023/08/01 04:53:53;;;;;;;45.55;27.38;;;14.80;99.90;;;;;;5022323;28;20183;-77
2023/08/01 04:56:19;;;;;;;46.35;27.73;;;14.70;99.90;;;;;;5022262;28;20285;-76
2023/08/01 04:58:45;;;;;;;35.50;24.23;;;14.70;99.90;;;;;;5022396;28;20183;-77
2023/08/01 05:01:10;;;;;;;37.47;24.73;;;14.70;99.90;;;;;;5022334;28;20182;-76
2023/08/01 05:03:36;;;;;;;46.03;24.52;;;14.60;99.90;;;;;;5039864;28;20254;-77
2023/08/01 05:06:02;;;;;;;37.08;23.25;;;14.70;99.90;;;;;;5022165;28;20195;-76
2023/08/01 05:08:27;;;;;;;39.08;22.27;;;14.60;99.90;;;;;;5040100;28;20174;-76
2023/08/01 05:10:53;;;;;;;34.03;21.00;;;14.70;99.90;;;;;;5040122;28;20175;-76
2023/08/01 05:13:19;;;;;;;35.20;19.15;;;14.70;99.90;;;;;;5040230;28;20627;-76
2023/08/01 05:15:48;;;;;;;33.50;20.02;;;14.70;99.90;;;;;;5039997;28;20581;-76
2023/08/01 05:18:16;;;;;;;25.45;17.20;;;14.70;99.90;;;;;;5039851;28;20174;-77
2023/08/01 05:20:42;;;;;;;23.52;17.83;;;14.70;99.90;;;;;;5039684;28;20175;-77
2023/08/01 05:23:07;;;;;;;25.73;17.20;;;14.70;99.90;;;;;;5021816;28;20203;-75
2023/08/01 05:25:33;;;;;;;27.40;15.80;;;14.70;99.90;;;;;;5039519;28;20195;-73
2023/08/01 05:27:59;;;;;;;29.23;16.40;;;14.70;99.90;;;;;;5040143;28;20178;-74
2023/08/01 05:30:25;;;;;;;23.77;16.33;;;14.70;99.90;;;;;;5021776;28;20175;-74
2023/08/01 05:32:51;;;;;;;32.63;17.48;;;14.70;99.90;;;;;;5039134;28;20611;-74
2023/08/01 05:35:17;;;;;;;32.38;17.90;;;14.70;99.90;;;;;;5039458;28;20195;-74
2023/08/01 05:37:43;;;;;;;26.73;18.00;;;14.60;99.90;;;;;;5039505;28;20214;-74
2023/08/01 05:40:09;;;;;;;24.58;18.15;;;14.60;99.90;;;;;;5019461;28;20179;-74
2023/08/01 05:42:35;;;;;;;34.35;19.33;;;14.60;99.90;;;;;;5018494;28;20206;-74
2023/08/01 05:45:01;;;;;;;31.77;19.50;;;14.60;99.90;;;;;;5018547;28;20178;-74
2023/08/01 05:47:27;;;;;;;31.70;20.38;;;14.60;99.90;;;;;;5036462;28;20540;-74
2023/08/01 05:49:52;;;;;;;29.83;21.42;;;14.60;99.90;;;;;;5018739;28;20183;-74
2023/08/01 05:52:18;;;;;;;35.25;22.30;;;14.60;99.90;;;;;;5018636;28;20194;-75
2023/08/01 05:54:44;;;;;;;35.40;23.67;;;14.60;99.90;;;;;;5018746;28;20186;-74
2023/08/01 05:57:10;;;;;;;39.35;25.08;;;14.60;99.90;;;;;;5018603;28;20281;-75
2023/08/01 05:59:36;;;;;;;40.00;23.63;;;14.60;99.90;;;;;;5018929;28;20325;-74
2023/08/01 06:02:02;;;;;;;41.63;24.45;;;14.70;99.90;;;;;;5036649;28;20223;-74
2023/08/01 06:04:28;;;;;;;44.33;27.25;;;14.70;99.90;;;;;;5018588;28;20175;-74
2023/08/01 06:06:54;;;;;;;46.92;24.48;;;14.70;99.90;;;;;;5018556;28;20608;-75
2023/08/01 06:09:20;;;;;;;41.35;25.85;;;14.70;99.90;;;;;;5036263;28;20209;-74
2023/08/01 06:11:45;;;;;;;40.58;25.63;;;14.70;99.90;;;;;;5035818;28;20522;-77
2023/08/01 06:14:11;;;;;;;35.47;24.98;;;14.70;99.90;;;;;;5018091;28;20191;-74
2023/08/01 06:16:37;;;;;;;39.78;26.95;;;14.70;99.90;;;;;;5018075;28;20199;-74
2023/08/01 06:19:03;;;;;;;39.50;25.48;;;14.70;99.90;;;;;;5035841;28;20582;-74
2023/08/01 06:21:29;;;;;;;35.55;22.33;;;14.70;99.90;;;;;;5018104;28;20203;-74
2023/08/01 06:23:55;;;;;;;33.03;22.42;;;14.80;99.90;;;;;;5017947;28;20555;-74
2023/08/01 06:26:21;;;;;;;40.42;22.65;;;14.70;99.90;;;;;;5036189;28;20325;-74
2023/08/01 06:28:46;;;;;;;39.88;22.48;;;14.80;99.90;;;;;;5017771;28;20207;-74
2023/08/01 06:31:12;;;;;;;36.47;22.83;;;14.80;99.90;;;;;;5017853;28;20182;-74
2023/08/01 06:33:38;;;;;;;40.83;23.27;;;14.80;99.90;;;;;;5017691;28;20675;-74
2023/08/01 06:36:05;;;;;;;34.58;23.73;;;14.90;99.90;;;;;;5017555;28;20214;-75
2023/08/01 06:38:30;;;;;;;38.22;23.77;;;14.90;99.90;;;;;;5017600;28;20183;-74
2023/08/01 06:40:56;;;;;;;34.83;23.10;;;14.90;99.90;;;;;;5017523;28;20193;-74
2023/08/01 06:43:24;;;;;;;35.50;22.92;;;15.00;99.90;;;;;;5017982;28;20298;-73
2023/08/01 06:45:50;;;;;;;36.97;24.63;;;15.00;99.90;;;;;;5037261;28;20219;-73
2023/08/01 06:48:16;;;;;;;41.75;25.48;;;15.00;99.90;;;;;;5017623;28;20658;-74
2023/08/01 06:50:41;;;;;;;39.55;24.80;;;15.00;99.90;;;;;;5035373;28;20200;-74
2023/08/01 06:53:08;;;;;;;45.25;26.20;;;15.00;99.90;;;;;;5035272;28;20186;-75
2023/08/01 06:55:34;;;;;;;40.70;25.00;;;15.00;99.90;;;;;;5017309;28;20659;-75
2023/08/01 06:57:59;;;;;;;42.38;27.45;;;15.10;99.90;;;;;;5017332;28;20271;-76
2023/08/01 07:00:25;;;;;;;33.00;23.95;;;15.10;99.90;;;;;;5017291;28;20190;-76
2023/08/01 07:02:51;;;;;;;32.17;22.55;;;15.20;99.90;;;;;;5034942;28;20239;-76
2023/08/01 07:05:17;;;;;;;33.35;21.30;;;15.20;99.90;;;;;;5017103;28;20718;-74
2023/08/01 07:07:43;;;;;;;33.25;20.88;;;15.20;99.90;;;;;;5035076;28;20171;-75
2023/08/01 07:10:09;;;;;;;32.95;20.13;;;15.20;99.90;;;;;;5034655;28;20167;-75
2023/08/01 07:12:35;;;;;;;29.85;18.83;;;15.30;99.90;;;;;;5016893;28;20179;-75
2023/08/01 07:15:00;;;;;;;31.00;19.05;;;15.40;99.90;;;;;;5016769;28;20175;-75
2023/08/01 07:17:26;;;;;;;29.52;18.35;;;15.40;99.90;;;;;;5016545;28;20199;-75
2023/08/01 07:19:53;;;;;;;24.77;16.73;;;15.60;99.90;;;;;;5034374;28;20547;-75
2023/08/01 07:22:19;;;;;;;25.95;17.13;;;15.70;99.90;;;;;;5016651;28;20207;-76
2023/08/01 07:24:44;;;;;;;25.95;16.10;;;15.80;99.90;;;;;;5016657;28;20183;-75
2023/08/01 07:27:11;;;;;;;26.55;15.63;;;15.80;99.90;;;;;;5034551;28;20194;-75
2023/08/01 07:29:37;;;;;;;26.08;16.02;;;15.80;99.90;;;;;;5034298;28;20195;-75
2023/08/01 07:32:04;;;;;;;21.27;16.25;;;15.70;99.90;;;;;;5016568;28;20603;-75
2023/08/01 07:34:30;;;;;;;22.05;15.68;;;15.70;99.90;;;;;;5034102;28;20183;-75
2023/08/01 07:36:55;;;;;;;22.50;14.93;;;15.70;99.90;;;;;;5034001;28;20233;-75
2023/08/01 07:39:21;;;;;;;25.08;14.82;;;15.80;99.90;;;;;;5016372;28;20186;-75
2023/08/01 07:41:47;;;;;;;25.90;14.18;;;15.90;99.90;;;;;;5034281;28;20211;-75
2023/08/01 07:44:13;;;;;;;19.65;13.82;;;15.90;99.90;;;;;;5034016;28;20255;-75
2023/08/01 07:46:38;;;;;;;18.35;14.23;;;15.90;99.90;;;;;;5034123;28;20528;-75
2023/08/01 07:49:04;;;;;;;24.50;14.57;;;16.00;99.90;;;;;;5015973;28;20198;-75
2023/08/01 07:51:30;;;;;;;22.27;14.93;;;16.00;99.90;;;;;;5016308;28;20183;-75
2023/08/01 07:53:56;;;;;;;21.33;14.23;;;16.00;99.90;;;;;;5034233;28;20186;-75
2023/08/01 07:56:22;;;;;;;28.17;15.27;;;16.10;99.90;;;;;;5016024;28;20234;-75
2023/08/01 07:58:48;;;;;;;28.27;14.38;;;16.10;99.90;;;;;;5033961;28;20175;-74
2023/08/01 08:01:13;;;;;;;21.00;14.93;;;16.10;99.90;;;;;;5033719;28;20174;-75
2023/08/01 08:03:39;;;;;;;22.50;15.32;;;16.10;99.90;;;;;;5015065;28;20786;-74
2023/08/01 08:06:05;;;;;;;20.45;13.43;;;16.20;99.90;;;;;;5016005;28;20201;-74
2023/08/01 08:08:33;;;;;;;20.67;14.02;;;16.40;99.90;;;;;;5033680;28;20170;-75
2023/08/01 08:11:00;;;;;;;19.42;13.68;;;16.40;99.90;;;;;;5033676;28;20176;-74
2023/08/01 08:13:26;;;;;;;21.48;13.68;;;16.30;99.90;;;;;;5033618;28;20178;-76
2023/08/01 08:15:54;;;;;;;18.45;12.25;;;16.40;99.90;;;;;;5033926;28;20199;-75
2023/08/01 08:18:20;;;;;;;21.02;12.63;;;16.40;99.90;;;;;;5033675;28;20535;-75
2023/08/01 08:20:46;;;;;;;21.42;12.88;;;16.50;99.90;;;;;;5033625;28;20258;-74
2023/08/01 08:23:15;;;;;;;17.88;12.38;;;16.60;99.90;;;;;;5033878;28;20278;-74
2023/08/01 08:25:46;;;;;;;16.70;11.63;;;16.70;99.90;;;;;;5033441;28;20196;-74
2023/08/01 08:28:13;;;;;;;19.50;12.07;;;16.90;99.90;;;;;;5015670;28;20174;-74
2023/08/01 08:30:39;;;;;;;13.48;10.90;;;17.00;99.90;;;;;;5015716;28;20232;-74
2023/08/01 08:33:06;;;;;;;16.70;11.23;;;16.90;99.90;;;;;;5015436;28;20179;-74
2023/08/01 08:35:36;;;;;;;19.58;11.40;;;16.80;99.90;;;;;;5015670;28;20218;-74
2023/08/01 08:38:06;;;;;;;19.13;11.60;;;16.80;99.90;;;;;;5034331;28;20171;-74
2023/08/01 08:40:33;;;;;;;19.33;10.48;;;16.80;99.90;;;;;;5034380;28;20151;-75
2023/08/01 08:43:02;;;;;;;15.68;9.85;;;16.90;99.90;;;;;;5033601;28;20195;-75
2023/08/01 08:45:32;;;;;;;15.77;9.93;;;17.10;99.90;;;;;;5033467;28;20187;-74
2023/08/01 08:48:02;;;;;;;13.40;8.65;;;17.30;99.90;;;;;;5015520;28;20642;-74
2023/08/01 08:50:30;;;;;;;14.05;9.02;;;17.70;99.90;;;;;;5033643;28;20244;-75
2023/08/01 08:52:57;;;;;;;12.60;7.82;;;18.10;99.90;;;;;;5033312;28;20177;-75
2023/08/01 08:55:26;;;;;;;10.90;7.47;;;18.60;99.90;;;;;;5033521;28;20667;-74
2023/08/01 08:57:52;;;;;;;17.23;8.68;;;18.70;99.90;;;;;;5033534;28;20201;-75
2023/08/01 09:00:19;;;;;;;18.08;7.85;;;18.60;99.90;;;;;;5033579;28;20175;-74
2023/08/01 09:02:45;;;;;;;10.07;7.25;;;18.60;99.90;;;;;;5032881;28;20244;-74
2023/08/01 09:05:11;;;;;;;10.20;6.63;;;18.50;99.90;;;;;;5033519;28;20184;-74
2023/08/01 09:07:42;;;;;;;12.93;7.82;;;18.50;99.90;;;;;;5033050;28;20221;-74
2023/08/01 09:10:08;;;;;;;12.45;8.05;;;18.70;99.90;;;;;;5033478;28;20179;-75
2023/08/01 09:12:35;;;;;;;11.48;7.88;;;18.50;99.90;;;;;;5033502;28;20180;-75
2023/08/01 09:15:01;;;;;;;12.00;7.90;;;18.80;99.90;;;;;;5034706;28;20632;-74
2023/08/01 09:17:27;;;;;;;15.10;8.90;;;19.00;99.90;;;;;;5036708;28;20199;-74
2023/08/01 09:20:06;;;;;;;12.40;8.18;;;19.10;99.90;;;;;;5036570;28;20186;-74
2023/08/01 09:22:45;;;;;;;13.25;7.93;;;19.20;99.90;;;;;;5036827;28;20206;-74
2023/08/01 09:25:11;;;;;;;12.27;7.18;;;19.30;99.90;;;;;;5036846;28;20246;-74
2023/08/01 09:27:37;;;;;;;12.52;6.95;;;19.00;99.90;;;;;;5036968;28;20642;-74
2023/08/01 09:30:15;;;;;;;11.20;7.13;;;18.80;99.90;;;;;;5036682;28;20175;-74
2023/08/01 09:32:52;;;;;;;11.10;6.72;;;18.70;99.90;;;;;;5018846;28;20550;-74
2023/08/01 09:35:17;;;;;;;9.02;6.85;;;18.50;99.90;;;;;;5036588;28;20265;-74
2023/08/01 09:37:43;;;;;;;13.38;6.72;;;18.10;99.90;;;;;;5018741;28;20701;-74
2023/08/01 09:40:10;;;;;;;11.35;6.95;;;17.80;99.90;;;;;;5018517;28;20182;-74
2023/08/01 09:42:44;;;;;;;12.88;7.65;;;17.80;99.90;;;;;;5036152;28;20245;-74
2023/08/01 09:45:14;;;;;;;10.63;6.72;;;18.20;99.90;;;;;;5036378;28;20590;-74
2023/08/01 09:47:40;;;;;;;9.43;6.78;;;18.50;99.90;;;;;;5036199;28;20186;-74
2023/08/01 09:50:06;;;;;;;12.02;6.95;;;18.90;99.90;;;;;;5018141;28;20217;-74
2023/08/01 09:52:33;;;;;;;10.38;6.72;;;19.30;99.90;;;;;;5036115;28;20237;-74
2023/08/01 09:54:59;;;;;;;11.30;6.57;;;19.50;99.90;;;;;;5018275;28;20183;-74
2023/08/01 09:57:28;;;;;;;9.63;6.03;;;19.80;99.90;;;;;;5035897;28;20195;-74
2023/08/01 09:59:56;;;;;;;12.60;5.97;;;20.10;99.90;;;;;;5036336;28;20160;-74
2023/08/01 10:02:25;;;;;;;10.35;5.55;;;20.10;99.90;;;;;;5018263;28;20260;-74
2023/08/01 10:04:54;;;;;;;9.88;6.15;;;20.40;99.90;;;;;;5017858;28;20262;-74
2023/08/01 10:07:26;;;;;;;7.38;5.70;;;20.00;99.90;;;;;;5035704;28;20566;-74
2023/08/01 10:09:57;;;;;;;9.25;5.88;;;19.70;99.90;;;;;;5035932;28;20171;-74
2023/08/01 10:12:26;;;;;;;8.18;5.72;;;19.90;99.90;;;;;;5035773;28;20159;-74
2023/08/01 10:14:53;;;;;;;10.52;5.30;;;20.10;99.90;;;;;;5018131;28;20274;-74
2023/08/01 10:17:21;;;;;;;10.60;5.22;;;20.30;99.90;;;;;;5036063;28;20305;-74
2023/08/01 10:19:50;;;;;;;9.38;5.38;;;20.30;99.90;;;;;;5017697;28;20272;-74
2023/08/01 10:22:18;;;;;;;8.55;5.22;;;20.00;99.90;;;;;;5035407;28;20202;-74
2023/08/01 10:24:45;;;;;;;13.45;6.57;;;19.70;99.90;;;;;;5017806;28;20191;-74
2023/08/01 10:27:15;;;;;;;10.18;5.15;;;19.70;99.90;;;;;;5034724;28;20566;-74
2023/08/01 10:29:42;;;;;;;11.02;4.70;;;19.90;99.90;;;;;;5018490;28;20562;-74
2023/08/01 10:32:08;;;;;;;7.47;4.53;;;20.10;99.90;;;;;;5017657;28;20186;-74
2023/08/01 10:34:33;;;;;;;9.43;4.75;;;20.40;99.90;;;;;;5017689;28;20555;-74
2023/08/01 10:36:59;;;;;;;8.40;5.03;;;20.30;99.90;;;;;;5035400;28;20217;-74
2023/08/01 10:39:27;;;;;;;7.00;4.47;;;20.20;99.90;;;;;;5035358;28;20686;-74
2023/08/01 10:42:01;;;;;;;9.20;5.32;;;20.10;99.90;;;;;;5017471;28;20202;-74
2023/08/01 10:44:27;;;;;;;9.02;5.18;;;19.80;99.90;;;;;;5035295;28;20183;-74
2023/08/01 10:46:56;;;;;;;10.07;5.20;;;19.50;99.90;;;;;;5035120;28;20249;-74
2023/08/01 10:49:37;;;;;;;6.57;4.65;;;19.00;99.90;;;;;;5034915;28;20594;-75
2023/08/01 10:52:15;;;;;;;8.00;4.38;;;18.30;99.90;;;;;;5035212;28;20164;-74
2023/08/01 10:54:41;;;;;;;7.10;4.68;;;17.70;99.90;;;;;;5035078;28;20170;-74
2023/08/01 10:57:08;;;;;;;8.73;4.95;;;17.30;99.90;;;;;;5035411;28;20663;-75
2023/08/01 10:59:34;;;;;;;9.60;5.82;;;17.20;99.90;;;;;;5035257;28;20316;-75
2023/08/01 11:02:01;;;;;;;9.52;5.50;;;17.00;99.90;;;;;;5034725;28;20203;-75
2023/08/01 11:04:27;;;;;;;8.60;5.65;;;16.90;99.90;;;;;;5017009;28;20572;-75
2023/08/01 11:06:58;;;;;;;9.73;6.05;;;17.00;99.90;;;;;;5017176;28;20230;-75
2023/08/01 11:09:26;;;;;;;9.02;6.13;;;17.10;99.90;;;;;;5034818;28;20521;-75
2023/08/01 11:11:54;;;;;;;7.47;5.75;;;17.30;99.90;;;;;;5017122;28;20179;-75
2023/08/01 11:14:22;;;;;;;11.15;6.60;;;17.50;99.90;;;;;;5034927;28;20179;-75
2023/08/01 11:16:49;;;;;;;7.82;6.15;;;17.80;99.90;;;;;;5034662;28;20194;-75
2023/08/01 11:19:25;;;;;;;11.18;6.68;;;18.10;99.90;;;;;;5034606;28;20582;-74
2023/08/01 11:21:52;;;;;;;13.13;5.60;;;18.40;99.90;;;;;;5017168;28;20700;-75
2023/08/01 11:24:19;;;;;;;8.88;5.60;;;18.60;99.90;;;;;;5017655;28;20183;-74
2023/08/01 11:26:47;;;;;;;9.95;5.78;;;19.00;99.90;;;;;;5034824;28;20546;-74
2023/08/01 11:29:14;;;;;;;11.27;6.20;;;19.40;99.90;;;;;;5017241;28;20229;-75
2023/08/01 11:31:41;;;;;;;13.90;5.93;;;19.70;99.90;;;;;;5034985;28;20291;-74
2023/08/01 11:34:10;;;;;;;9.85;5.30;;;19.80;99.90;;;;;;5034604;28;20187;-74
2023/08/01 11:36:36;;;;;;;13.95;5.63;;;19.80;99.90;;;;;;5016395;28;20682;-74
2023/08/01 11:39:02;;;;;;;10.85;5.63;;;19.60;99.90;;;;;;5015578;28;20185;-74
2023/08/01 11:41:29;;;;;;;12.23;5.78;;;19.20;99.90;;;;;;5016538;28;20225;-74
2023/08/01 11:43:55;;;;;;;10.35;5.93;;;18.60;99.90;;;;;;5016632;28;20639;-74
2023/08/01 11:46:22;;;;;;;9.90;6.10;;;18.10;99.90;;;;;;5034230;28;20549;-75
2023/08/01 11:48:50;;;;;;;7.80;4.82;;;17.70;99.90;;;;;;5016582;28;20552;-75
2023/08/01 11:51:16;;;;;;;8.23;5.15;;;17.50;99.90;;;;;;5016407;28;20643;-75
2023/08/01 11:53:42;;;;;;;7.10;5.25;;;17.20;99.90;;;;;;5016420;28;20179;-75
2023/08/01 11:56:08;;;;;;;8.18;5.55;;;17.20;99.90;;;;;;5034111;28;20555;-75
2023/08/01 11:58:36;;;;;;;9.07;6.15;;;17.40;99.90;;;;;;5016377;28;20176;-75
2023/08/01 12:01:13;;;;;;;12.77;6.47;;;17.40;99.90;;;;;;5016594;28;20261;-76
2023/08/01 12:03:54;;;;;;;8.45;5.13;;;17.50;99.90;;;;;;5033941;28;20274;-75
2023/08/01 12:06:22;;;;;;;11.80;6.03;;;17.50;99.90;;;;;;5016337;28;20199;-75
2023/08/01 12:08:50;;;;;;;8.50;5.70;;;17.40;99.90;;;;;;5037528;28;20183;-75
2023/08/01 12:11:23;;;;;;;7.97;5.45;;;17.20;99.90;;;;;;5035335;28;20178;-75
2023/08/01 12:14:11;;;;;;;6.53;5.18;;;17.00;99.90;;;;;;5034676;28;20189;-75
2023/08/01 12:16:38;;;;;;;8.05;4.97;;;16.90;99.90;;;;;;5016788;28;20203;-75
2023/08/01 12:19:05;;;;;;;7.32;5.32;;;16.90;99.90;;;;;;5016197;28;20532;-75
2023/08/01 12:21:32;;;;;;;9.18;5.40;;;16.70;99.90;;;;;;5016108;28;20260;-75
2023/08/01 12:23:58;;;;;;;7.43;4.90;;;16.60;99.90;;;;;;5033762;28;20167;-75
2023/08/01 12:26:24;;;;;;;6.95;5.13;;;16.50;99.90;;;;;;5033650;28;20195;-74
2023/08/01 12:28:51;;;;;;;9.05;5.07;;;16.30;99.90;;;;;;5015860;28;20175;-74
2023/08/01 12:31:18;;;;;;;7.05;5.65;;;16.10;99.90;;;;;;5015684;28;20183;-74
2023/08/01 12:33:45;;;;;;;7.93;5.20;;;16.10;99.90;;;;;;5015678;28;20201;-74